Time;durP1;ratioP1;P1;durP2;ratioP2;P2;SDS_P1;SDS_P2;PMS_P1;PMS_P2;Temp;Humidity;BMP_temperature;BMP_pressure;BME280_temperature;BME280_humidity;BME280_pressure;Samples;Min_cycle;Max_cycle;Signal;HPM_P1;HPM_P2
2021/03/18 00:00:55;;;;;;;1.70;1.50;;;2.00;98.20;;;;;;5042707;28;20466;-79
2021/03/18 00:03:26;;;;;;;1.60;1.50;;;2.00;98.20;;;;;;5059172;28;20894;-78
2021/03/18 00:05:54;;;;;;;1.70;1.60;;;2.00;98.20;;;;;;5034777;28;20553;-76
2021/03/18 00:08:22;;;;;;;1.63;1.50;;;2.00;98.20;;;;;;5053968;28;20497;-78
2021/03/18 00:10:50;;;;;;;1.67;1.50;;;1.90;98.20;;;;;;5039284;28;20475;-78
2021/03/18 00:13:16;;;;;;;1.60;1.43;;;1.90;98.20;;;;;;5060588;28;20980;-78
2021/03/18 00:15:45;;;;;;;1.80;1.70;;;1.90;98.20;;;;;;5052615;28;20485;-79
2021/03/18 00:18:13;;;;;;;1.70;1.60;;;1.90;98.20;;;;;;5050327;28;20493;-78
2021/03/18 00:20:40;;;;;;;1.60;1.50;;;1.90;98.20;;;;;;5052617;28;20450;-79
2021/03/18 00:23:07;;;;;;;1.70;1.60;;;1.90;98.20;;;;;;5053404;28;20474;-79
2021/03/18 00:25:34;;;;;;;1.80;1.70;;;1.90;98.20;;;;;;5053068;28;20906;-81
2021/03/18 00:28:01;;;;;;;1.63;1.50;;;1.90;98.20;;;;;;5058620;28;20859;-81
2021/03/18 00:30:27;;;;;;;1.70;1.60;;;1.80;98.20;;;;;;5053698;28;20528;-81
2021/03/18 00:32:54;;;;;;;1.63;1.50;;;1.80;98.20;;;;;;5053777;28;20489;-82
2021/03/18 00:35:22;;;;;;;1.70;1.60;;;1.80;98.20;;;;;;5045278;28;20533;-80
2021/03/18 00:37:50;;;;;;;1.70;1.60;;;1.80;98.20;;;;;;5054978;28;20477;-80
2021/03/18 00:40:20;;;;;;;1.70;1.60;;;1.80;98.20;;;;;;5048084;28;20455;-79
2021/03/18 00:42:49;;;;;;;1.70;1.60;;;1.80;98.20;;;;;;5054854;28;20500;-78
2021/03/18 00:45:16;;;;;;;1.70;1.60;;;1.80;98.20;;;;;;5049176;28;20711;-81
2021/03/18 00:47:43;;;;;;;1.70;1.60;;;1.80;98.20;;;;;;5049027;28;20482;-79
2021/03/18 00:50:11;;;;;;;1.70;1.50;;;1.80;98.20;;;;;;5043699;28;20490;-80
2021/03/18 00:52:37;;;;;;;1.63;1.50;;;1.80;98.20;;;;;;5048855;28;21064;-82
2021/03/18 00:55:05;;;;;;;1.67;1.53;;;1.80;98.20;;;;;;5053843;28;20487;-79
2021/03/18 00:57:33;;;;;;;1.70;1.60;;;1.80;98.20;;;;;;5053376;28;20493;-81
2021/03/18 00:59:59;;;;;;;1.70;1.50;;;1.80;98.20;;;;;;5052519;28;20719;-80
2021/03/18 01:02:25;;;;;;;1.70;1.60;;;1.80;98.20;;;;;;5046359;28;20510;-80
2021/03/18 01:04:51;;;;;;;1.70;1.60;;;1.80;98.20;;;;;;5051676;28;20482;-80
2021/03/18 01:07:17;;;;;;;1.70;1.60;;;1.70;98.20;;;;;;5048872;28;20480;-80
2021/03/18 01:09:44;;;;;;;1.70;1.60;;;1.70;98.20;;;;;;5049112;28;20487;-79
2021/03/18 01:12:10;;;;;;;1.70;1.60;;;1.80;98.20;;;;;;5046387;28;20572;-82
2021/03/18 01:14:37;;;;;;;1.70;1.60;;;1.70;98.20;;;;;;5052812;28;20747;-82
2021/03/18 01:17:04;;;;;;;1.60;1.50;;;1.70;98.20;;;;;;5048708;28;20492;-80
2021/03/18 01:19:30;;;;;;;1.70;1.60;;;1.70;98.20;;;;;;5054490;28;20867;-82
2021/03/18 01:21:57;;;;;;;1.63;1.50;;;1.70;98.20;;;;;;5047806;28;20474;-81
2021/03/18 01:24:23;;;;;;;1.60;1.50;;;1.70;98.20;;;;;;5055384;28;20470;-80
2021/03/18 01:26:50;;;;;;;1.80;1.70;;;1.70;98.20;;;;;;5049984;28;20560;-80
2021/03/18 01:29:16;;;;;;;1.70;1.60;;;1.70;98.20;;;;;;5055572;28;20509;-82
2021/03/18 01:31:44;;;;;;;1.70;1.60;;;1.70;98.20;;;;;;5044751;28;20514;-81
2021/03/18 01:34:11;;;;;;;1.67;1.50;;;1.70;98.20;;;;;;5054675;28;20463;-80
2021/03/18 01:36:38;;;;;;;1.80;1.70;;;1.70;98.20;;;;;;5038282;28;20958;-81
2021/03/18 01:39:06;;;;;;;1.70;1.60;;;1.70;98.20;;;;;;5050954;28;20462;-80
2021/03/18 01:41:33;;;;;;;1.67;1.50;;;1.70;98.20;;;;;;5043800;28;20477;-79
2021/03/18 01:43:59;;;;;;;1.67;1.57;;;1.70;98.20;;;;;;5053125;28;20462;-79
2021/03/18 01:46:26;;;;;;;1.70;1.60;;;1.70;98.20;;;;;;5041173;28;20480;-80
2021/03/18 01:48:53;;;;;;;1.63;1.50;;;1.70;98.20;;;;;;5052577;28;20547;-81
2021/03/18 01:51:20;;;;;;;1.80;1.70;;;1.80;98.20;;;;;;5044990;28;20474;-80
2021/03/18 01:53:47;;;;;;;1.70;1.60;;;1.80;98.20;;;;;;5058513;28;20458;-80
2021/03/18 01:56:13;;;;;;;1.60;1.50;;;1.80;98.20;;;;;;5046382;28;20488;-78
2021/03/18 01:58:42;;;;;;;1.67;1.50;;;1.80;98.20;;;;;;5061984;28;20458;-81
2021/03/18 02:01:10;;;;;;;1.60;1.50;;;1.80;98.20;;;;;;5041029;28;20578;-81
2021/03/18 02:03:37;;;;;;;1.70;1.60;;;1.80;98.20;;;;;;5058267;28;21069;-80
2021/03/18 02:06:05;;;;;;;1.80;1.70;;;1.80;98.20;;;;;;5042453;28;20497;-81
2021/03/18 02:08:32;;;;;;;1.73;1.63;;;1.80;98.20;;;;;;5059402;28;20466;-80
2021/03/18 02:10:58;;;;;;;1.93;1.83;;;1.80;98.20;;;;;;5043761;28;20489;-81
2021/03/18 02:13:25;;;;;;;1.70;1.60;;;1.80;98.20;;;;;;5056668;28;20497;-82
2021/03/18 02:15:54;;;;;;;1.70;1.50;;;1.80;98.20;;;;;;5042457;28;20482;-79
2021/03/18 02:18:28;;;;;;;1.70;1.53;;;1.70;98.20;;;;;;5055373;28;20462;-80
2021/03/18 02:21:24;;;;;;;1.83;1.73;;;1.70;98.20;;;;;;5034732;28;20593;-81
2021/03/18 02:24:15;;;;;;;1.87;1.77;;;1.70;98.20;;;;;;5040781;28;21169;-83
2021/03/18 02:27:06;;;;;;;1.70;1.60;;;1.70;98.20;;;;;;5042380;28;20481;-79
2021/03/18 02:30:02;;;;;;;1.70;1.60;;;1.70;98.20;;;;;;5048357;28;21031;-81
2021/03/18 02:32:42;;;;;;;1.70;1.60;;;1.70;98.20;;;;;;5050283;28;20473;-80
2021/03/18 02:35:24;;;;;;;2.00;1.90;;;1.70;98.20;;;;;;5044216;28;21118;-80
2021/03/18 02:37:59;;;;;;;1.63;1.50;;;1.70;98.20;;;;;;5047013;28;20508;-80
2021/03/18 02:40:27;;;;;;;1.73;1.63;;;1.70;98.20;;;;;;5040852;28;20670;-82
2021/03/18 02:42:58;;;;;;;1.73;1.63;;;1.70;98.20;;;;;;5045480;28;20935;-77
2021/03/18 02:45:28;;;;;;;1.80;1.70;;;1.70;98.20;;;;;;5043171;28;20826;-79
2021/03/18 02:47:58;;;;;;;1.80;1.70;;;1.60;98.20;;;;;;5053470;28;20475;-78
2021/03/18 02:50:27;;;;;;;1.80;1.70;;;1.60;98.20;;;;;;5047952;28;20494;-81
2021/03/18 02:52:54;;;;;;;1.80;1.70;;;1.60;98.20;;;;;;5051796;28;20484;-79
2021/03/18 02:55:23;;;;;;;1.80;1.70;;;1.60;98.20;;;;;;5048544;28;20482;-82
2021/03/18 02:57:51;;;;;;;1.60;1.50;;;1.60;98.20;;;;;;5035261;28;20905;-81
2021/03/18 03:00:19;;;;;;;1.80;1.70;;;1.50;98.20;;;;;;5053689;28;20459;-79
2021/03/18 03:02:47;;;;;;;1.70;1.60;;;1.60;98.20;;;;;;5058430;28;20477;-80
2021/03/18 03:05:15;;;;;;;1.70;1.60;;;1.60;98.20;;;;;;5048911;28;20521;-82
2021/03/18 03:07:44;;;;;;;1.80;1.70;;;1.60;98.20;;;;;;5051257;28;22161;-82
2021/03/18 03:10:13;;;;;;;1.70;1.60;;;1.60;98.20;;;;;;5060862;28;20490;-81
2021/03/18 03:12:39;;;;;;;1.73;1.63;;;1.60;98.20;;;;;;5054097;28;20479;-82
2021/03/18 03:15:10;;;;;;;1.70;1.60;;;1.60;98.20;;;;;;5058137;28;20486;-81
2021/03/18 03:17:40;;;;;;;1.70;1.60;;;1.60;98.20;;;;;;5062939;28;20477;-81
2021/03/18 03:20:09;;;;;;;1.90;1.80;;;1.60;98.20;;;;;;5057946;28;20514;-81
2021/03/18 03:22:36;;;;;;;1.73;1.63;;;1.60;98.20;;;;;;5063318;28;20628;-82
2021/03/18 03:25:05;;;;;;;1.67;1.50;;;1.50;98.20;;;;;;5058671;28;20478;-82
2021/03/18 03:27:32;;;;;;;1.70;1.60;;;1.50;98.20;;;;;;5060437;28;21478;-82
2021/03/18 03:29:59;;;;;;;1.70;1.60;;;1.50;98.20;;;;;;5061463;28;20535;-80
2021/03/18 03:32:26;;;;;;;1.63;1.50;;;1.50;98.20;;;;;;5060087;28;20474;-80
2021/03/18 03:34:53;;;;;;;1.70;1.60;;;1.50;98.20;;;;;;5062818;28;20506;-80
2021/03/18 03:37:19;;;;;;;1.80;1.70;;;1.50;98.20;;;;;;5061671;28;20484;-82
2021/03/18 03:39:46;;;;;;;1.73;1.63;;;1.50;98.20;;;;;;5058243;28;20466;-82
2021/03/18 03:42:14;;;;;;;1.83;1.73;;;1.50;98.20;;;;;;5060910;28;20488;-82
2021/03/18 03:44:41;;;;;;;1.70;1.50;;;1.50;98.20;;;;;;5062353;28;20467;-81
2021/03/18 03:47:10;;;;;;;1.80;1.70;;;1.50;98.20;;;;;;5048729;28;20567;-82
2021/03/18 03:49:37;;;;;;;1.87;1.77;;;1.50;98.20;;;;;;5062277;28;20494;-81
2021/03/18 03:52:13;;;;;;;1.60;1.50;;;1.50;98.20;;;;;;5061378;28;20485;-82
2021/03/18 03:54:44;;;;;;;1.70;1.60;;;1.50;98.20;;;;;;5064842;28;20462;-82
2021/03/18 03:57:17;;;;;;;1.70;1.60;;;1.50;98.20;;;;;;5057530;28;20509;-81
2021/03/18 03:59:45;;;;;;;1.70;1.60;;;1.60;98.20;;;;;;5062622;28;20533;-82
2021/03/18 04:02:13;;;;;;;1.70;1.60;;;1.60;98.20;;;;;;5060368;28;20478;-81
2021/03/18 04:04:43;;;;;;;1.80;1.70;;;1.60;98.20;;;;;;5059589;28;20961;-82
2021/03/18 04:07:13;;;;;;;1.70;1.60;;;1.70;98.20;;;;;;5055377;28;20491;-79
2021/03/18 04:09:39;;;;;;;1.73;1.63;;;1.70;98.20;;;;;;5057557;28;20490;-80
2021/03/18 04:12:07;;;;;;;1.80;1.70;;;1.70;98.20;;;;;;5058192;28;20537;-81
2021/03/18 04:14:37;;;;;;;1.70;1.60;;;1.80;98.20;;;;;;5057549;28;20462;-82
2021/03/18 04:17:07;;;;;;;1.60;1.47;;;1.80;98.20;;;;;;5057176;28;20470;-81
2021/03/18 04:19:34;;;;;;;1.63;1.47;;;1.80;98.20;;;;;;5062025;28;20458;-80
2021/03/18 04:22:01;;;;;;;1.77;1.67;;;1.90;98.20;;;;;;5062402;28;20496;-81
2021/03/18 04:24:29;;;;;;;1.70;1.60;;;1.90;98.20;;;;;;5063353;28;20463;-81
2021/03/18 04:26:55;;;;;;;1.67;1.50;;;1.90;98.20;;;;;;5058447;28;20489;-80
2021/03/18 04:29:23;;;;;;;1.60;1.50;;;2.00;98.20;;;;;;5060127;28;20466;-81
2021/03/18 04:31:52;;;;;;;1.70;1.60;;;2.00;98.20;;;;;;5055202;28;20473;-82
2021/03/18 04:34:20;;;;;;;1.73;1.63;;;2.00;98.20;;;;;;5054749;28;20455;-82
2021/03/18 04:36:46;;;;;;;1.63;1.50;;;2.00;98.20;;;;;;5057283;28;21078;-81
2021/03/18 04:39:14;;;;;;;1.70;1.50;;;2.10;98.20;;;;;;5067369;28;20485;-80
2021/03/18 04:41:42;;;;;;;1.70;1.60;;;2.10;98.20;;;;;;5049376;28;20471;-81
2021/03/18 04:44:10;;;;;;;1.70;1.60;;;2.10;98.20;;;;;;5065756;28;20637;-80
2021/03/18 04:46:38;;;;;;;1.70;1.50;;;2.10;98.20;;;;;;5048645;28;20545;-81
2021/03/18 04:49:06;;;;;;;1.63;1.40;;;2.10;98.20;;;;;;5055431;28;20470;-82
2021/03/18 04:51:32;;;;;;;1.70;1.60;;;2.10;98.20;;;;;;5056056;28;21015;-82
2021/03/18 04:53:59;;;;;;;1.70;1.57;;;2.10;98.20;;;;;;5062925;28;20454;-81
2021/03/18 04:56:27;;;;;;;1.67;1.50;;;2.20;98.20;;;;;;5055457;28;20474;-80
2021/03/18 04:58:55;;;;;;;1.90;1.80;;;2.10;98.20;;;;;;5066388;28;20451;-79
2021/03/18 05:01:23;;;;;;;1.63;1.40;;;2.20;98.20;;;;;;5050030;28;20491;-79
2021/03/18 05:03:50;;;;;;;1.70;1.50;;;2.20;98.20;;;;;;5058305;28;20458;-81
2021/03/18 05:06:20;;;;;;;1.60;1.50;;;2.20;98.20;;;;;;5050986;28;20469;-82
2021/03/18 05:08:47;;;;;;;1.70;1.50;;;2.20;98.20;;;;;;5064793;28;20459;-82
2021/03/18 05:11:14;;;;;;;1.80;1.70;;;2.20;98.20;;;;;;5049987;28;20569;-81
2021/03/18 05:13:41;;;;;;;1.60;1.50;;;2.20;98.20;;;;;;5067496;28;20465;-82
2021/03/18 05:16:09;;;;;;;1.70;1.50;;;2.20;98.20;;;;;;5051059;28;20491;-83
2021/03/18 05:18:36;;;;;;;1.70;1.60;;;2.20;98.20;;;;;;5067355;28;20474;-81
2021/03/18 05:21:04;;;;;;;1.70;1.50;;;2.20;98.20;;;;;;5050287;28;20461;-81
2021/03/18 05:23:33;;;;;;;1.67;1.50;;;2.20;98.20;;;;;;5071428;28;20467;-81
2021/03/18 05:26:00;;;;;;;1.63;1.50;;;2.20;98.20;;;;;;5052330;28;20474;-80
2021/03/18 05:28:27;;;;;;;1.60;1.50;;;2.20;98.20;;;;;;5067563;28;20843;-81
2021/03/18 05:30:54;;;;;;;1.63;1.40;;;2.20;98.20;;;;;;5047021;28;20507;-80
2021/03/18 05:33:21;;;;;;;1.60;1.50;;;2.20;98.20;;;;;;5066060;28;20462;-80
2021/03/18 05:35:47;;;;;;;1.70;1.60;;;2.20;98.20;;;;;;5047812;28;21097;-80
2021/03/18 05:38:16;;;;;;;1.70;1.60;;;2.30;98.20;;;;;;5059068;28;20472;-82
2021/03/18 05:40:45;;;;;;;1.70;1.53;;;2.30;98.20;;;;;;5061849;28;20733;-81
2021/03/18 05:43:12;;;;;;;1.70;1.60;;;2.30;98.20;;;;;;5044243;28;20873;-81
2021/03/18 05:45:38;;;;;;;1.67;1.50;;;2.30;98.20;;;;;;5061171;28;20485;-82
2021/03/18 05:48:06;;;;;;;1.70;1.60;;;2.30;98.20;;;;;;5064217;28;20569;-81
2021/03/18 05:50:34;;;;;;;1.90;1.80;;;2.30;98.20;;;;;;5063895;28;20481;-82
2021/03/18 05:53:02;;;;;;;1.70;1.50;;;2.30;98.20;;;;;;5063622;28;20577;-83
2021/03/18 05:55:29;;;;;;;1.73;1.63;;;2.30;98.20;;;;;;5053767;28;20528;-82
2021/03/18 05:57:57;;;;;;;1.63;1.50;;;2.40;98.20;;;;;;5054399;28;20544;-81
2021/03/18 06:00:25;;;;;;;1.80;1.70;;;2.40;98.20;;;;;;5060864;28;20570;-82
2021/03/18 06:02:52;;;;;;;1.67;1.50;;;2.40;98.20;;;;;;5063619;28;20551;-82
2021/03/18 06:05:19;;;;;;;1.63;1.40;;;2.40;98.20;;;;;;5060792;28;20483;-81
2021/03/18 06:07:47;;;;;;;1.60;1.50;;;2.40;98.20;;;;;;5060321;28;20481;-81
2021/03/18 06:10:15;;;;;;;1.70;1.60;;;2.50;98.20;;;;;;5057134;28;20486;-80
2021/03/18 06:12:43;;;;;;;1.63;1.50;;;2.50;98.20;;;;;;5055931;28;20501;-79
2021/03/18 06:15:13;;;;;;;1.60;1.50;;;2.50;98.20;;;;;;5048791;28;20540;-82
2021/03/18 06:17:41;;;;;;;1.60;1.40;;;2.50;98.20;;;;;;5059551;28;20466;-82
2021/03/18 06:20:11;;;;;;;1.67;1.50;;;2.60;98.20;;;;;;5054258;28;20466;-81
2021/03/18 06:22:38;;;;;;;1.70;1.50;;;2.60;98.20;;;;;;5058371;28;20478;-82
2021/03/18 06:25:07;;;;;;;1.60;1.50;;;2.60;98.20;;;;;;5061006;28;20538;-81
2021/03/18 06:27:33;;;;;;;1.80;1.70;;;2.60;98.20;;;;;;5059363;28;21050;-81
2021/03/18 06:29:59;;;;;;;1.70;1.60;;;2.60;98.20;;;;;;5061517;28;20486;-80
2021/03/18 06:32:26;;;;;;;1.77;1.67;;;2.60;98.20;;;;;;5056854;28;20488;-81
2021/03/18 06:34:55;;;;;;;1.70;1.43;;;2.70;98.20;;;;;;5055668;28;20549;-81
2021/03/18 06:37:30;;;;;;;1.77;1.67;;;2.70;98.20;;;;;;5063127;28;20929;-79
2021/03/18 06:39:58;;;;;;;1.60;1.50;;;2.70;98.20;;;;;;5058404;28;20537;-82
2021/03/18 06:42:24;;;;;;;1.70;1.50;;;2.70;98.20;;;;;;5062080;28;20557;-81
2021/03/18 06:45:04;;;;;;;1.63;1.50;;;2.70;98.20;;;;;;5063226;28;20458;-81
2021/03/18 06:47:46;;;;;;;1.83;1.73;;;2.70;98.20;;;;;;5059119;28;20585;-82
2021/03/18 06:50:14;;;;;;;1.60;1.40;;;2.70;98.20;;;;;;5058729;28;20482;-81
2021/03/18 06:52:42;;;;;;;1.70;1.50;;;2.70;98.20;;;;;;5063418;28;21155;-82
2021/03/18 06:55:10;;;;;;;1.60;1.50;;;2.70;98.20;;;;;;5062548;28;20510;-80
2021/03/18 06:57:36;;;;;;;1.70;1.50;;;2.70;98.20;;;;;;5054670;28;20565;-82
2021/03/18 07:00:06;;;;;;;1.70;1.57;;;2.80;98.20;;;;;;5060014;28;20461;-80
2021/03/18 07:02:40;;;;;;;1.70;1.50;;;2.80;98.20;;;;;;5062365;28;20553;-80
2021/03/18 07:05:17;;;;;;;1.60;1.50;;;2.90;98.20;;;;;;5054419;28;20500;-79
2021/03/18 07:07:46;;;;;;;1.63;1.40;;;3.00;98.20;;;;;;5067138;28;20469;-79
2021/03/18 07:10:13;;;;;;;1.60;1.40;;;3.00;98.20;;;;;;5057751;28;20475;-83
2021/03/18 07:12:41;;;;;;;1.60;1.40;;;3.00;98.20;;;;;;5052804;28;20476;-81
2021/03/18 07:15:17;;;;;;;1.67;1.40;;;3.10;98.20;;;;;;5057350;28;20522;-80
2021/03/18 07:17:44;;;;;;;1.70;1.57;;;3.20;98.20;;;;;;5064327;28;20469;-80
2021/03/18 07:20:16;;;;;;;1.63;1.50;;;3.30;98.20;;;;;;5056046;28;20514;-81
2021/03/18 07:22:45;;;;;;;3.13;2.93;;;3.40;98.20;;;;;;5068275;28;20488;-80
2021/03/18 07:25:14;;;;;;;1.70;1.40;;;3.40;98.20;;;;;;5062679;28;20483;-81
2021/03/18 07:27:42;;;;;;;1.60;1.50;;;3.50;98.20;;;;;;5069231;28;20480;-80
2021/03/18 07:30:11;;;;;;;1.70;1.40;;;3.60;98.20;;;;;;5062888;28;20577;-81
2021/03/18 07:32:37;;;;;;;1.70;1.50;;;3.70;98.20;;;;;;5065821;28;20759;-80
2021/03/18 07:35:06;;;;;;;1.60;1.40;;;3.70;98.20;;;;;;5064959;28;20479;-82
2021/03/18 07:37:32;;;;;;;1.67;1.50;;;3.90;98.20;;;;;;5058790;28;20485;-80
2021/03/18 07:40:01;;;;;;;1.60;1.33;;;4.00;98.20;;;;;;5054894;28;20489;-81
2021/03/18 07:42:28;;;;;;;1.70;1.60;;;4.00;98.20;;;;;;5064492;28;20481;-81
2021/03/18 07:44:55;;;;;;;1.60;1.40;;;4.20;98.20;;;;;;5052434;28;20475;-81
2021/03/18 07:47:23;;;;;;;3.93;3.63;;;4.30;98.20;;;;;;5049635;28;20552;-80
2021/03/18 07:49:52;;;;;;;1.63;1.40;;;4.40;98.20;;;;;;5050023;28;20491;-82
2021/03/18 07:52:23;;;;;;;1.60;1.40;;;4.50;98.20;;;;;;5054105;28;21062;-81
2021/03/18 07:54:51;;;;;;;1.60;1.40;;;4.60;98.20;;;;;;5061164;28;20470;-80
2021/03/18 07:57:18;;;;;;;1.70;1.40;;;4.80;98.20;;;;;;5053447;28;20478;-81
2021/03/18 07:59:45;;;;;;;1.67;1.40;;;4.90;98.20;;;;;;5050356;28;20485;-80
2021/03/18 08:02:15;;;;;;;1.60;1.30;;;5.00;98.20;;;;;;5054824;28;20485;-80
2021/03/18 08:04:42;;;;;;;1.60;1.30;;;5.10;98.20;;;;;;5058963;28;20516;-81
2021/03/18 08:07:09;;;;;;;1.70;1.50;;;5.20;98.20;;;;;;5062912;28;20474;-81
2021/03/18 08:09:57;;;;;;;1.60;1.30;;;5.30;98.20;;;;;;5057147;28;20475;-82
2021/03/18 08:12:44;;;;;;;1.60;1.30;;;5.50;98.20;;;;;;5043493;28;20478;-82
2021/03/18 08:15:32;;;;;;;1.60;1.30;;;5.60;98.20;;;;;;5052338;28;20542;-81
2021/03/18 08:18:40;;;;;;;1.70;1.60;;;5.70;98.20;;;;;;5058854;28;20572;-81
2021/03/18 08:21:11;;;;;;;1.63;1.40;;;5.80;98.20;;;;;;5002148;28;20602;-82
2021/03/18 08:23:54;;;;;;;1.60;1.23;;;5.90;98.20;;;;;;5063559;28;20462;-82
2021/03/18 08:26:37;;;;;;;1.63;1.40;;;5.90;98.20;;;;;;5047936;28;20616;-81
2021/03/18 08:29:07;;;;;;;1.60;1.30;;;5.90;98.20;;;;;;5056707;28;20463;-81
2021/03/18 08:31:47;;;;;;;1.60;1.30;;;6.00;98.20;;;;;;5050132;28;20865;-82
2021/03/18 08:34:13;;;;;;;1.60;1.30;;;6.00;98.20;;;;;;5064717;28;20488;-81
2021/03/18 08:36:53;;;;;;;1.60;1.40;;;6.00;98.20;;;;;;5055758;28;20509;-81
2021/03/18 08:39:40;;;;;;;1.60;1.30;;;6.10;98.20;;;;;;5067582;28;20542;-81
2021/03/18 08:42:40;;;;;;;1.60;1.27;;;6.20;98.20;;;;;;5054458;28;20523;-82
2021/03/18 08:45:34;;;;;;;1.60;1.33;;;6.30;98.20;;;;;;5049879;28;20476;-81
2021/03/18 08:48:18;;;;;;;1.60;1.20;;;6.40;98.20;;;;;;5065311;28;20492;-81
2021/03/18 08:50:59;;;;;;;1.60;1.30;;;6.50;98.20;;;;;;5056347;28;20518;-80
2021/03/18 08:53:36;;;;;;;1.60;1.20;;;6.60;98.20;;;;;;5042961;28;20474;-81
2021/03/18 08:56:03;;;;;;;1.60;1.30;;;6.60;98.20;;;;;;5039826;28;20717;-81
2021/03/18 08:58:44;;;;;;;1.60;1.40;;;6.80;98.20;;;;;;5061474;28;20455;-82
2021/03/18 09:01:17;;;;;;;1.60;1.30;;;6.80;98.20;;;;;;5043869;28;20552;-81
2021/03/18 09:03:54;;;;;;;1.63;1.33;;;6.90;98.20;;;;;;5055054;28;20466;-83
2021/03/18 09:06:21;;;;;;;1.60;1.20;;;7.00;98.20;;;;;;5047751;28;20474;-82
2021/03/18 09:08:47;;;;;;;1.60;1.20;;;7.10;98.20;;;;;;5062315;28;20450;-81
2021/03/18 09:11:22;;;;;;;1.60;1.30;;;7.20;98.20;;;;;;5048248;28;20525;-83
2021/03/18 09:13:49;;;;;;;1.60;1.40;;;7.30;98.20;;;;;;5060173;28;20466;-81
2021/03/18 09:16:21;;;;;;;1.60;1.20;;;7.30;98.20;;;;;;5046827;28;20496;-84
2021/03/18 09:18:48;;;;;;;1.57;1.20;;;7.30;98.20;;;;;;5062047;28;20886;-81
2021/03/18 09:21:14;;;;;;;1.60;1.30;;;7.30;98.20;;;;;;5043634;28;20508;-81
2021/03/18 09:23:43;;;;;;;1.60;1.30;;;7.40;98.20;;;;;;5058620;28;20478;-81
2021/03/18 09:26:12;;;;;;;1.60;1.20;;;7.40;98.20;;;;;;5054070;28;20503;-82
2021/03/18 09:28:40;;;;;;;1.60;1.30;;;7.50;98.20;;;;;;5073373;28;20465;-83
2021/03/18 09:31:07;;;;;;;1.60;1.20;;;7.60;98.20;;;;;;5043800;28;23190;-79
2021/03/18 09:33:35;;;;;;;1.60;1.20;;;7.60;98.20;;;;;;5067023;28;20454;-80
2021/03/18 09:36:20;;;;;;;1.60;1.20;;;7.70;98.20;;;;;;5039352;28;20773;-80
2021/03/18 09:38:56;;;;;;;3.40;3.10;;;7.80;97.80;;;;;;5052650;28;20493;-81
2021/03/18 09:41:25;;;;;;;1.57;1.20;;;7.90;98.00;;;;;;5045666;28;20496;-81
2021/03/18 09:44:02;;;;;;;1.60;1.20;;;7.90;97.20;;;;;;5052558;28;20458;-80
2021/03/18 09:46:30;;;;;;;1.60;1.10;;;8.00;97.70;;;;;;5041514;28;20504;-81
2021/03/18 09:48:56;;;;;;;3.57;3.30;;;8.10;96.70;;;;;;5054382;28;21022;-80
2021/03/18 09:51:22;;;;;;;1.60;1.20;;;8.10;96.30;;;;;;5052078;28;20485;-81
2021/03/18 09:53:57;;;;;;;1.57;1.10;;;8.10;96.70;;;;;;5046911;28;20754;-81
2021/03/18 09:56:24;;;;;;;1.60;1.20;;;8.10;96.40;;;;;;5053673;28;20489;-80
2021/03/18 09:58:50;;;;;;;1.60;1.20;;;8.10;96.90;;;;;;5063694;28;20458;-81
2021/03/18 10:01:18;;;;;;;2.87;2.07;;;8.20;96.90;;;;;;5044194;28;20469;-81
2021/03/18 10:03:53;;;;;;;1.60;1.30;;;8.30;96.40;;;;;;5057838;28;20520;-81
2021/03/18 10:06:27;;;;;;;1.53;1.20;;;8.40;95.50;;;;;;5044418;28;20487;-79
2021/03/18 10:09:13;;;;;;;1.53;1.03;;;8.60;95.10;;;;;;5067812;28;20459;-80
2021/03/18 10:11:39;;;;;;;1.60;1.20;;;8.70;94.00;;;;;;5051978;28;21010;-80
2021/03/18 10:14:06;;;;;;;1.57;1.13;;;9.00;94.00;;;;;;5057866;28;20462;-81
2021/03/18 10:16:33;;;;;;;1.60;1.13;;;9.10;93.00;;;;;;5038928;28;20491;-81
2021/03/18 10:19:00;;;;;;;1.60;1.10;;;9.30;93.40;;;;;;5047410;28;20827;-80
2021/03/18 10:21:26;;;;;;;1.60;1.20;;;9.40;93.00;;;;;;5042923;28;20489;-80
2021/03/18 10:23:52;;;;;;;1.60;1.10;;;9.50;92.50;;;;;;5058177;28;20471;-81
2021/03/18 10:26:22;;;;;;;1.57;1.00;;;9.60;92.40;;;;;;5047341;28;20477;-79
2021/03/18 10:28:57;;;;;;;1.60;1.10;;;9.80;91.50;;;;;;5059520;28;20467;-82
2021/03/18 10:31:24;;;;;;;1.57;1.10;;;9.80;90.70;;;;;;5047317;28;20607;-81
2021/03/18 10:33:50;;;;;;;1.60;1.20;;;9.80;91.00;;;;;;5048169;28;20553;-80
2021/03/18 10:36:30;;;;;;;1.57;1.10;;;9.80;91.20;;;;;;5046612;28;20492;-82
2021/03/18 10:38:59;;;;;;;1.60;1.10;;;9.70;90.70;;;;;;5061880;28;20471;-80
2021/03/18 10:41:25;;;;;;;1.60;1.10;;;9.70;90.80;;;;;;5045748;28;21010;-81
2021/03/18 10:43:52;;;;;;;1.60;1.10;;;9.80;89.90;;;;;;5061698;28;20466;-79
2021/03/18 10:46:26;;;;;;;1.57;1.10;;;9.70;90.00;;;;;;5042767;28;21015;-79
2021/03/18 10:48:52;;;;;;;1.57;1.07;;;9.70;90.00;;;;;;5047967;28;20466;-78
2021/03/18 10:51:20;;;;;;;1.60;1.10;;;9.70;89.40;;;;;;5048623;28;20482;-80
2021/03/18 10:53:47;;;;;;;1.50;1.10;;;9.60;89.80;;;;;;5055516;28;20463;-78
2021/03/18 10:56:17;;;;;;;1.57;1.10;;;9.60;90.20;;;;;;5044019;28;20484;-78
2021/03/18 10:58:44;;;;;;;1.60;1.20;;;9.60;90.60;;;;;;5067522;28;20482;-78
2021/03/18 11:01:12;;;;;;;1.60;1.20;;;9.50;90.10;;;;;;5049951;28;20484;-79
2021/03/18 11:03:40;;;;;;;1.53;1.10;;;9.60;90.50;;;;;;5068527;28;20535;-79
2021/03/18 11:06:16;;;;;;;1.53;1.00;;;9.60;90.90;;;;;;5047692;28;20545;-79
2021/03/18 11:08:45;;;;;;;1.53;1.00;;;9.80;90.10;;;;;;5058531;28;20470;-79
2021/03/18 11:11:13;;;;;;;1.60;1.10;;;10.00;90.20;;;;;;5040045;28;20472;-79
2021/03/18 11:13:42;;;;;;;1.60;1.20;;;10.20;88.90;;;;;;5060614;28;20509;-78
2021/03/18 11:16:09;;;;;;;1.53;1.10;;;10.30;88.50;;;;;;5044566;28;20490;-78
2021/03/18 11:18:38;;;;;;;1.60;1.00;;;10.40;87.30;;;;;;5062273;28;20467;-79
2021/03/18 11:21:20;;;;;;;1.57;1.00;;;10.40;87.70;;;;;;5050619;28;23258;-79
2021/03/18 11:23:49;;;;;;;1.53;1.00;;;10.40;87.40;;;;;;5066238;28;20836;-78
2021/03/18 11:26:19;;;;;;;1.57;1.10;;;10.30;87.90;;;;;;5049681;28;20505;-79
2021/03/18 11:28:52;;;;;;;2.60;2.40;;;10.30;88.10;;;;;;5063709;28;20461;-79
2021/03/18 11:31:20;;;;;;;1.53;1.00;;;10.40;87.50;;;;;;5051205;28;20577;-79
2021/03/18 11:33:47;;;;;;;1.57;1.00;;;10.40;88.10;;;;;;5065062;28;20702;-79
2021/03/18 11:36:14;;;;;;;1.50;1.00;;;10.50;86.70;;;;;;5045368;28;20503;-79
2021/03/18 11:38:40;;;;;;;1.53;1.07;;;10.40;87.90;;;;;;5065561;28;20475;-78
2021/03/18 11:41:07;;;;;;;1.53;1.00;;;10.40;87.20;;;;;;5048465;28;20462;-79
2021/03/18 11:43:35;;;;;;;1.50;1.00;;;10.40;87.10;;;;;;5064363;28;20950;-78
2021/03/18 11:46:01;;;;;;;1.60;1.10;;;10.50;87.30;;;;;;5048579;28;20590;-78
2021/03/18 11:48:28;;;;;;;1.60;1.13;;;10.40;87.70;;;;;;5063782;28;20886;-78
2021/03/18 11:50:55;;;;;;;1.60;1.10;;;10.40;87.30;;;;;;5041621;28;20509;-78
2021/03/18 11:53:23;;;;;;;1.53;1.07;;;10.40;87.30;;;;;;5062138;28;20513;-78
2021/03/18 11:55:50;;;;;;;1.50;1.07;;;10.40;87.40;;;;;;5044145;28;20529;-78
2021/03/18 11:58:17;;;;;;;1.53;1.00;;;10.40;86.60;;;;;;5066062;28;20838;-78
2021/03/18 12:00:44;;;;;;;1.53;1.00;;;10.50;86.70;;;;;;5055167;28;20466;-78
2021/03/18 12:03:13;;;;;;;1.53;1.10;;;10.50;87.40;;;;;;5043953;28;20478;-78
2021/03/18 12:05:41;;;;;;;1.53;1.00;;;10.60;86.40;;;;;;5053268;28;20498;-78
2021/03/18 12:08:08;;;;;;;1.57;1.10;;;10.70;85.60;;;;;;5057386;28;20486;-78
2021/03/18 12:10:34;;;;;;;1.60;1.10;;;10.80;85.50;;;;;;5049957;28;20478;-78
2021/03/18 12:13:01;;;;;;;1.57;1.00;;;11.00;85.40;;;;;;5059155;28;20478;-78
2021/03/18 12:15:28;;;;;;;1.57;1.00;;;11.00;84.80;;;;;;5051303;28;20517;-78
2021/03/18 12:17:54;;;;;;;1.60;1.10;;;11.10;84.20;;;;;;5054812;28;20481;-77
2021/03/18 12:20:23;;;;;;;1.60;1.10;;;11.10;84.40;;;;;;5048848;28;20544;-79
2021/03/18 12:22:50;;;;;;;1.53;1.00;;;11.10;84.10;;;;;;5060146;28;20503;-79
2021/03/18 12:25:18;;;;;;;1.60;1.00;;;11.00;84.10;;;;;;5052032;28;20490;-79
2021/03/18 12:27:45;;;;;;;1.53;1.00;;;10.90;84.20;;;;;;5037257;28;20485;-78
2021/03/18 12:30:14;;;;;;;1.53;1.07;;;10.80;84.50;;;;;;5045257;28;20489;-78
2021/03/18 12:32:42;;;;;;;1.57;1.00;;;10.70;83.70;;;;;;5057187;28;20484;-78
2021/03/18 12:35:11;;;;;;;1.60;1.30;;;10.60;85.20;;;;;;5055870;28;20474;-79
2021/03/18 12:37:37;;;;;;;1.60;1.30;;;10.70;85.70;;;;;;5054902;28;20481;-79
2021/03/18 12:40:05;;;;;;;1.60;1.10;;;10.60;84.80;;;;;;5051402;28;20485;-79
2021/03/18 12:42:32;;;;;;;1.60;1.10;;;10.60;85.00;;;;;;5047819;28;20496;-78
2021/03/18 12:44:59;;;;;;;1.50;1.00;;;10.60;84.80;;;;;;5051416;28;20475;-79
2021/03/18 12:47:25;;;;;;;1.97;1.77;;;10.60;85.30;;;;;;5037763;28;20521;-78
2021/03/18 12:49:53;;;;;;;1.60;1.30;;;10.50;84.80;;;;;;5051277;28;20514;-80
2021/03/18 12:52:19;;;;;;;1.50;1.00;;;10.30;85.30;;;;;;5040343;28;20478;-81
2021/03/18 12:54:45;;;;;;;1.57;1.03;;;10.20;86.00;;;;;;5049775;28;20864;-81
2021/03/18 12:57:12;;;;;;;1.60;1.10;;;10.10;86.10;;;;;;5050801;28;20488;-78
2021/03/18 12:59:38;;;;;;;1.60;1.00;;;10.00;86.60;;;;;;5048558;28;20480;-78
2021/03/18 13:02:07;;;;;;;1.63;1.30;;;9.80;87.00;;;;;;5050419;28;21083;-78
2021/03/18 13:04:34;;;;;;;1.57;1.10;;;9.70;87.40;;;;;;5058086;28;20482;-79
2021/03/18 13:07:01;;;;;;;1.60;1.10;;;9.70;87.80;;;;;;5050905;28;20972;-79